Tilton, South Dakota
Current Conditions -  °F | °C
As of 7:15 AM on Sunday 23 Nov 2014 (Local Time) from KSPF Reporting Station
Broken Clouds Broken Clouds  
Wind Chill: 23°   Ceiling: 7500
Heat Index: 34°   Visibility: 10mi
Dew Point: 18°   Wind: 17mph
Humidity: 52%   Direction: 290°WNW
Pressure: 29.71"   Gusts: 31mph
Location:  44.253°N, 103.912°W
Report Text: KSPF 231415Z AUTO 29015G27KT 10SM BKN075 01/M08 A2971 RMK AO2
Loading
Personal Weather Stations






























Interactive Weather Map New forecast layout! Learn more

10-Day Weather Forecast

Advertisements
Track Severe Weather on mobile